Time;durP1;ratioP1;P1;durP2;ratioP2;P2;SDS_P1;SDS_P2;PMS_P1;PMS_P2;Temp;Humidity;BMP_temperature;BMP_pressure;BME280_temperature;BME280_humidity;BME280_pressure;Samples;Min_cycle;Max_cycle;Signal;HPM_P1;HPM_P2
2022/06/18 00:01:54;;;;;;;3.30;2.07;;;21.50;63.10;;;21.69;86.99;100965.47;5030605;28;20731;-80
2022/06/18 00:04:24;;;;;;;2.55;1.73;;;21.50;63.30;;;21.70;88.52;100964.50;5030835;28;20083;-80
2022/06/18 00:07:03;;;;;;;2.20;1.83;;;21.50;63.80;;;21.56;91.85;100973.38;5016182;28;20045;-80
2022/06/18 00:09:44;;;;;;;3.00;1.70;;;21.40;64.90;;;21.52;92.86;100977.16;5031036;28;20041;-80
2022/06/18 00:15:16;;;;;;;3.38;1.98;;;21.30;66.80;;;21.36;95.97;100978.09;5018986;28;20057;-81
2022/06/18 00:17:44;;;;;;;3.85;1.98;;;21.30;67.90;;;21.25;96.09;100973.38;5031190;28;20112;-80
2022/06/18 00:20:15;;;;;;;3.60;1.85;;;21.20;68.60;;;21.12;98.37;100964.38;5030047;28;20049;-80
2022/06/18 00:22:46;;;;;;;2.25;1.75;;;21.10;69.80;;;21.13;97.41;100967.91;5015393;28;20042;-79
2022/06/18 00:25:39;;;;;;;5.63;1.70;;;21.00;70.60;;;21.00;100.00;100963.28;5031194;28;20406;-79
2022/06/18 00:28:41;;;;;;;2.42;1.95;;;20.90;72.20;;;21.06;99.72;100962.91;5010908;28;20128;-79
2022/06/18 00:31:08;;;;;;;3.65;2.08;;;20.90;73.40;;;20.95;100.00;100952.00;4993887;28;20041;-80
2022/06/18 00:33:39;;;;;;;2.90;2.15;;;20.90;74.20;;;20.97;98.81;100952.78;5027442;28;20050;-80
2022/06/18 00:36:13;;;;;;;;;;;20.90;74.70;;;21.07;98.08;100950.41;5031309;28;20053;-80
2022/06/18 00:38:45;;;;;;;2.55;1.83;;;20.80;75.00;;;20.94;99.02;100948.44;5001316;28;19975;-80
2022/06/18 00:41:33;;;;;;;5.35;2.22;;;20.70;75.90;;;20.91;98.41;100953.13;5031400;28;20067;-80
2022/06/18 00:44:21;;;;;;;3.63;1.88;;;20.80;76.20;;;20.82;100.00;100960.72;5029519;28;20076;-80
2022/06/18 00:47:13;;;;;;;1.88;1.70;;;20.70;77.20;;;20.90;99.41;100952.25;5029983;28;20091;-79
2022/06/18 00:49:59;;;;;;;2.28;1.65;;;20.70;77.50;;;20.92;97.13;100953.03;5028640;28;20576;-78
2022/06/18 00:52:38;;;;;;;2.08;1.85;;;20.70;77.20;;;20.96;97.37;100956.41;5013676;28;20050;-80
2022/06/18 00:55:39;;;;;;;2.83;2.00;;;20.70;77.60;;;20.98;95.48;100959.84;5029442;28;20065;-80
2022/06/18 00:58:20;;;;;;;3.88;2.00;;;20.70;77.80;;;20.94;97.18;100955.63;5029754;28;20053;-80
2022/06/18 01:00:50;;;;;;;4.13;1.88;;;20.70;78.00;;;20.93;94.93;100954.75;5009775;28;20059;-79
2022/06/18 01:03:34;;;;;;;3.03;2.07;;;20.70;77.40;;;20.85;94.19;100957.03;4992949;28;20084;-76
2022/06/18 01:06:25;;;;;;;5.25;2.10;;;20.70;77.50;;;20.80;94.95;100954.63;4991784;28;20292;-77
2022/06/18 01:09:06;;;;;;;4.47;2.00;;;20.60;77.60;;;20.83;93.80;100954.44;5006984;28;20475;-76
2022/06/18 01:11:39;;;;;;;2.42;1.83;;;20.60;77.30;;;20.89;90.31;100942.53;4991353;28;20103;-77
2022/06/18 01:14:12;;;;;;;2.45;2.08;;;20.60;76.50;;;20.90;93.00;100946.91;4991055;28;20658;-77
2022/06/18 01:16:39;;;;;;;2.53;2.00;;;20.60;77.30;;;20.88;91.81;100943.47;4991478;28;20073;-76
2022/06/18 01:19:37;;;;;;;2.67;1.80;;;20.60;77.20;;;20.81;92.83;100942.97;4995020;28;20092;-76
2022/06/18 01:22:20;;;;;;;2.17;1.90;;;20.60;77.70;;;20.81;95.19;100939.41;5008776;28;20052;-78
2022/06/18 01:24:47;;;;;;;2.45;1.83;;;20.60;78.10;;;20.77;94.96;100937.84;5030191;28;20049;-78
2022/06/18 01:27:15;;;;;;;1.80;1.60;;;20.60;78.70;;;20.83;93.87;100937.50;5030666;28;20061;-77
2022/06/18 01:29:43;;;;;;;4.75;1.45;;;20.60;78.30;;;20.76;93.82;100925.44;5029712;28;20514;-77
2022/06/18 01:32:15;;;;;;;2.75;1.98;;;20.50;78.30;;;20.68;95.57;100931.22;5029426;28;20100;-77
2022/06/18 01:34:45;;;;;;;4.03;2.30;;;20.50;79.00;;;20.63;97.25;100931.47;5030174;28;20053;-77
2022/06/18 01:37:14;;;;;;;4.90;2.20;;;20.50;79.70;;;20.46;100.00;100934.25;5030697;28;20049;-78
2022/06/18 01:39:46;;;;;;;3.10;1.90;;;20.40;81.10;;;20.48;99.88;100924.34;5013381;28;20382;-77
2022/06/18 01:42:29;;;;;;;2.20;1.75;;;20.30;81.00;;;20.49;99.31;100932.28;5030083;28;20049;-77
2022/06/18 01:45:10;;;;;;;2.03;1.80;;;20.30;81.70;;;20.43;99.50;100924.59;5013115;28;20140;-77
2022/06/18 01:47:47;;;;;;;4.05;2.13;;;20.20;81.60;;;20.30;100.00;100919.09;5030047;28;20490;-76
2022/06/18 01:50:34;;;;;;;3.03;1.98;;;20.20;82.50;;;20.46;97.63;100918.22;5028986;28;20100;-77
2022/06/18 01:53:14;;;;;;;3.75;1.88;;;20.20;82.00;;;20.40;97.85;100917.63;5013733;28;20145;-78
2022/06/18 01:55:47;;;;;;;2.33;1.90;;;20.10;82.10;;;20.44;96.44;100904.09;5030315;28;20073;-77
2022/06/18 01:58:50;;;;;;;4.00;1.95;;;20.10;81.80;;;20.47;96.76;100909.25;5013873;28;20068;-77
2022/06/18 02:01:38;;;;;;;4.32;2.25;;;20.20;81.90;;;20.35;96.98;100909.00;5016296;28;20061;-77
2022/06/18 02:04:06;;;;;;;2.47;1.70;;;20.20;82.00;;;20.30;97.67;100911.09;5013296;28;20076;-76
2022/06/18 02:06:37;;;;;;;2.20;2.00;;;20.20;82.20;;;20.32;99.27;100905.66;5047533;28;20053;-77
2022/06/18 02:09:40;;;;;;;3.40;2.08;;;20.10;82.80;;;20.23;99.73;100904.38;5032833;28;20060;-76
2022/06/18 02:12:20;;;;;;;3.33;1.98;;;20.10;82.60;;;20.17;99.87;100904.69;5032095;28;20041;-76
2022/06/18 02:14:55;;;;;;;2.63;1.95;;;20.00;83.10;;;20.20;98.97;100896.50;5023407;28;20105;-77
2022/06/18 02:17:26;;;;;;;4.18;2.10;;;20.00;83.00;;;20.25;98.49;100905.16;5046468;28;20499;-76
2022/06/18 02:20:10;;;;;;;2.42;2.13;;;20.00;83.00;;;20.18;100.00;100906.41;5012635;28;20041;-77
2022/06/18 02:22:50;;;;;;;4.15;2.50;;;20.00;84.00;;;20.17;100.00;100896.69;5013405;28;20752;-77
2022/06/18 02:25:23;;;;;;;4.72;2.28;;;20.00;84.10;;;20.08;100.00;100909.63;5012424;28;20578;-77
2022/06/18 02:28:16;;;;;;;3.53;2.10;;;19.90;85.20;;;20.08;100.00;100909.63;5013150;28;20050;-76
2022/06/18 02:30:44;;;;;;;2.72;2.08;;;19.90;84.30;;;19.94;100.00;100902.34;5031073;28;20061;-76
2022/06/18 02:33:28;;;;;;;2.45;1.88;;;19.80;86.00;;;19.80;100.00;100899.53;5029424;28;20056;-77
2022/06/18 02:36:11;;;;;;;2.50;2.10;;;19.80;86.50;;;19.78;100.00;100896.09;5029344;28;20033;-78
2022/06/18 02:38:38;;;;;;;2.20;2.00;;;19.70;86.80;;;19.69;100.00;100894.81;5012831;28;20144;-77
2022/06/18 02:41:05;;;;;;;2.63;1.92;;;19.60;87.80;;;19.62;100.00;100896.94;5027299;28;20041;-77
2022/06/18 02:43:33;;;;;;;2.90;2.08;;;19.60;88.00;;;19.63;100.00;100897.81;5028012;28;20085;-76
2022/06/18 02:46:00;;;;;;;2.70;2.25;;;19.50;88.70;;;19.69;100.00;100903.69;5012213;28;20047;-77
2022/06/18 02:48:31;;;;;;;2.63;2.20;;;19.50;88.10;;;19.61;100.00;100895.22;5028690;28;20057;-77
2022/06/18 02:51:00;;;;;;;3.08;2.22;;;19.50;88.90;;;19.58;100.00;100894.50;5025522;28;20048;-77
2022/06/18 02:53:29;;;;;;;2.40;2.15;;;19.40;89.30;;;19.44;100.00;100898.78;5039595;28;20042;-77
2022/06/18 02:56:01;;;;;;;2.42;2.17;;;19.40;89.90;;;19.51;100.00;100899.31;5025248;28;20072;-77
2022/06/18 02:58:39;;;;;;;2.67;2.25;;;19.40;89.80;;;19.48;100.00;100900.34;5008568;28;20606;-77
2022/06/18 03:01:19;;;;;;;5.53;2.05;;;19.30;89.80;;;19.37;100.00;100908.06;5008049;28;20048;-77
2022/06/18 03:04:04;;;;;;;4.22;2.38;;;19.30;90.00;;;19.49;100.00;100909.19;5024407;28;20141;-78
2022/06/18 03:06:33;;;;;;;5.07;2.30;;;19.30;89.60;;;19.49;100.00;100909.19;5041997;28;20080;-77
2022/06/18 03:09:00;;;;;;;4.78;2.35;;;19.90;90.00;;;19.52;100.00;100909.06;5008671;28;20053;-76
2022/06/18 03:14:18;;;;;;;3.85;2.33;;;19.30;88.70;;;19.51;100.00;100912.66;5038379;28;20392;-77
2022/06/18 03:16:46;;;;;;;5.93;2.10;;;19.30;89.70;;;19.49;100.00;100911.88;5024779;28;20058;-77
2022/06/18 03:19:35;;;;;;;3.53;1.90;;;19.30;89.50;;;19.41;100.00;100913.16;5023835;28;20042;-77
2022/06/18 03:22:14;;;;;;;2.38;2.00;;;19.30;90.00;;;19.40;100.00;100919.44;5025234;28;20772;-76
2022/06/18 03:24:41;;;;;;;3.70;1.80;;;19.20;89.80;;;19.34;100.00;100916.22;4992633;28;20049;-77
2022/06/18 03:27:11;;;;;;;2.15;1.95;;;19.20;90.20;;;19.26;100.00;100914.81;5010158;28;20117;-77
2022/06/18 03:29:43;;;;;;;2.75;1.92;;;19.20;90.40;;;19.24;100.00;100921.19;4992818;28;20060;-77
2022/06/18 03:32:10;;;;;;;2.40;2.17;;;19.10;90.50;;;19.25;100.00;100910.41;5008313;28;20152;-77
2022/06/18 03:34:38;;;;;;;2.80;2.33;;;19.10;90.40;;;19.28;100.00;100904.06;4991877;28;20045;-77
2022/06/18 03:37:08;;;;;;;4.22;2.00;;;19.10;90.40;;;19.19;100.00;100913.41;4992731;28;20072;-77
2022/06/18 03:39:36;;;;;;;2.20;1.70;;;19.00;90.70;;;19.13;100.00;100914.59;5007329;28;20042;-77
2022/06/18 03:42:04;;;;;;;3.42;2.10;;;19.00;90.90;;;19.10;100.00;100912.09;4992614;28;20133;-77
2022/06/18 03:44:31;;;;;;;3.28;2.10;;;19.00;91.00;;;19.15;100.00;100914.53;5007715;28;20077;-77
2022/06/18 03:47:01;;;;;;;4.72;2.05;;;19.00;91.00;;;19.07;100.00;100914.03;4992626;28;20533;-77
2022/06/18 03:49:34;;;;;;;3.72;2.13;;;19.00;91.00;;;19.13;100.00;100919.06;4991608;28;20045;-77
2022/06/18 03:52:07;;;;;;;3.45;2.20;;;19.00;91.10;;;19.16;100.00;100920.69;5004872;28;20136;-77
2022/06/18 03:54:34;;;;;;;2.47;2.17;;;19.00;90.90;;;19.15;100.00;100921.63;5027726;28;20049;-77
2022/06/18 03:57:05;;;;;;;3.33;2.15;;;18.90;90.90;;;19.13;100.00;100922.59;5028000;28;20498;-77
2022/06/18 03:59:34;;;;;;;5.43;2.60;;;19.00;90.90;;;19.05;100.00;100916.81;5026985;28;20077;-77
2022/06/18 04:02:03;;;;;;;4.15;2.42;;;18.90;91.00;;;19.11;100.00;100921.81;5026131;28;20465;-77
2022/06/18 04:04:35;;;;;;;3.38;2.45;;;18.90;91.00;;;19.18;100.00;100919.69;5012313;28;20045;-77
2022/06/18 04:07:03;;;;;;;4.15;2.13;;;18.90;91.20;;;19.11;100.00;100920.94;5028197;28;20069;-77
2022/06/18 04:09:43;;;;;;;3.30;2.30;;;18.90;91.30;;;19.10;100.00;100922.75;5027365;28;20123;-77
2022/06/18 04:12:17;;;;;;;3.25;2.45;;;18.90;91.30;;;19.10;100.00;100925.41;5012046;28;20073;-77
2022/06/18 04:15:07;;;;;;;;;;;18.90;91.30;;;19.17;100.00;100915.28;5027672;28;20049;-77
2022/06/18 04:17:42;;;;;;;3.05;2.00;;;19.60;91.20;;;19.17;100.00;100931.31;5012102;28;19921;-74
2022/06/18 04:20:37;;;;;;;4.97;2.20;;;18.90;91.20;;;19.13;100.00;100929.75;5025707;28;20076;-73
2022/06/18 04:23:10;;;;;;;2.60;2.15;;;18.90;91.60;;;19.10;100.00;100937.88;5023062;28;20095;-74
2022/06/18 04:25:39;;;;;;;3.72;2.90;;;18.90;91.80;;;19.10;100.00;100936.09;5007631;28;20054;-74
2022/06/18 04:28:15;;;;;;;2.58;2.25;;;18.90;91.90;;;19.16;100.00;100937.56;5007236;28;20419;-75
2022/06/18 04:30:50;;;;;;;4.80;2.20;;;18.90;91.90;;;19.17;100.00;100944.63;4992794;28;20523;-75
2022/06/18 04:33:26;;;;;;;4.38;2.08;;;18.90;91.90;;;19.24;100.00;100943.38;5010143;28;20096;-75
2022/06/18 04:35:59;;;;;;;2.72;2.20;;;19.00;91.90;;;19.30;100.00;100950.19;5008054;28;20053;-75
2022/06/18 04:38:27;;;;;;;3.45;2.10;;;19.00;92.00;;;19.34;100.00;100948.25;4991856;28;20046;-74
2022/06/18 04:41:14;;;;;;;3.63;2.22;;;19.00;91.70;;;19.33;100.00;100941.19;5006885;28;20153;-74
2022/06/18 04:43:45;;;;;;;3.10;2.47;;;19.10;92.10;;;19.37;100.00;100946.28;5006795;28;20492;-75
2022/06/18 04:46:13;;;;;;;2.90;2.10;;;19.10;92.00;;;19.40;100.00;100947.91;4991251;28;20050;-74
2022/06/18 04:48:45;;;;;;;2.50;2.20;;;19.30;92.10;;;19.46;100.00;100950.28;4975819;28;20136;-74
2022/06/18 04:51:13;;;;;;;2.50;2.10;;;19.20;92.10;;;19.56;100.00;100947.97;5015573;28;20053;-75
2022/06/18 04:53:40;;;;;;;4.07;2.42;;;19.20;92.00;;;19.63;100.00;100941.38;5042294;28;20053;-74
2022/06/18 04:56:10;;;;;;;3.43;2.43;;;19.80;92.00;;;19.63;100.00;100930.69;5027090;28;20049;-74
2022/06/18 04:58:41;;;;;;;2.80;2.22;;;19.30;92.10;;;19.69;100.00;100940.19;5026652;28;20296;-74
2022/06/18 05:01:15;;;;;;;4.20;2.60;;;19.40;92.10;;;19.74;100.00;100931.94;5026414;28;20465;-76
2022/06/18 05:04:21;;;;;;;4.68;2.70;;;19.40;92.20;;;19.79;100.00;100932.53;5015869;28;20757;-75
2022/06/18 05:07:11;;;;;;;3.25;2.15;;;19.50;92.20;;;19.75;100.00;100925.63;5014007;28;20457;-75
2022/06/18 05:10:04;;;;;;;4.72;2.53;;;19.50;92.30;;;19.86;100.00;100925.06;5025252;28;20566;-74
2022/06/18 05:12:44;;;;;;;2.88;2.22;;;19.60;92.00;;;20.02;100.00;100927.78;5012003;28;20049;-75
2022/06/18 05:15:30;;;;;;;4.60;2.85;;;19.60;91.90;;;20.08;100.00;100924.78;5026397;28;20132;-75
2022/06/18 05:17:58;;;;;;;4.82;2.10;;;19.70;91.50;;;20.07;100.00;100931.06;5026631;28;20049;-74
2022/06/18 05:20:25;;;;;;;3.10;2.10;;;19.70;91.60;;;20.18;100.00;100930.47;5025159;28;20136;-75
2022/06/18 05:22:56;;;;;;;3.20;2.47;;;19.80;91.50;;;20.16;100.00;100927.03;5026867;28;20041;-75
2022/06/18 05:25:24;;;;;;;3.38;2.25;;;19.80;91.30;;;20.29;100.00;100927.19;5009960;28;20088;-75
2022/06/18 05:27:52;;;;;;;7.45;2.30;;;19.90;91.30;;;20.30;100.00;100921.78;5026523;28;20537;-75
2022/06/18 05:30:27;;;;;;;6.05;2.35;;;20.30;91.40;;;20.39;100.00;100915.91;5010070;28;20058;-75
2022/06/18 05:32:59;;;;;;;2.45;1.85;;;20.00;91.30;;;20.45;100.00;100914.72;5010643;28;20080;-75
2022/06/18 05:35:28;;;;;;;3.40;2.28;;;20.10;91.20;;;20.55;100.00;100901.69;5026218;28;20095;-75
2022/06/18 05:37:55;;;;;;;6.97;2.60;;;20.10;91.20;;;20.60;100.00;100904.94;5026316;28;20042;-74
2022/06/18 05:40:22;;;;;;;4.40;2.38;;;20.40;91.30;;;20.66;100.00;100896.53;5009030;28;20041;-75
2022/06/18 05:42:49;;;;;;;4.75;2.42;;;20.20;91.00;;;20.76;100.00;100901.38;5026704;28;20617;-75
2022/06/18 05:45:16;;;;;;;4.85;2.20;;;20.30;90.80;;;20.80;100.00;100895.78;5025615;28;20052;-76
2022/06/18 05:47:43;;;;;;;2.97;1.95;;;20.40;90.90;;;20.89;100.00;100890.84;5026537;28;20144;-75
2022/06/18 05:50:16;;;;;;;3.65;2.45;;;20.50;91.10;;;21.08;100.00;100893.28;5009535;28;20084;-76
2022/06/18 05:52:44;;;;;;;2.72;2.15;;;20.60;90.60;;;21.10;100.00;100894.91;5026548;28;20041;-75
2022/06/18 05:55:22;;;;;;;3.60;2.25;;;20.60;90.40;;;21.18;100.00;100888.22;5025576;28;20041;-76
2022/06/18 05:58:00;;;;;;;2.80;2.47;;;20.70;90.00;;;21.21;100.00;100888.91;5011435;28;20052;-75
2022/06/18 06:00:32;;;;;;;4.15;2.58;;;20.80;90.10;;;21.34;100.00;100883.66;5025295;28;20041;-75
2022/06/18 06:03:03;;;;;;;5.15;2.28;;;20.80;90.10;;;21.43;98.61;100887.59;5010677;28;20049;-75
2022/06/18 06:05:30;;;;;;;3.80;2.42;;;20.90;89.60;;;21.47;95.51;100878.44;5013618;28;20053;-75
2022/06/18 06:07:58;;;;;;;2.88;2.20;;;21.00;88.70;;;21.52;95.34;100891.50;5013758;28;20052;-76
2022/06/18 06:13:22;;;;;;;3.97;2.53;;;21.20;88.40;;;21.73;94.53;100885.81;5029228;28;20111;-76
2022/06/18 06:15:50;;;;;;;3.72;2.85;;;21.30;88.30;;;21.83;93.99;100884.25;5029533;28;20057;-75
2022/06/18 06:18:25;;;;;;;2.20;2.00;;;21.30;88.20;;;21.93;93.65;100885.41;5029118;28;20041;-76
2022/06/18 06:20:55;;;;;;;3.25;2.38;;;21.40;88.00;;;22.03;91.74;100879.47;5033628;28;20037;-75
2022/06/18 06:23:22;;;;;;;3.65;2.03;;;21.50;87.70;;;22.09;92.77;100884.41;5029304;28;20111;-75
2022/06/18 06:25:50;;;;;;;3.97;2.30;;;21.60;87.80;;;22.16;91.75;100882.19;5030023;28;20774;-75
2022/06/18 06:28:23;;;;;;;2.88;2.50;;;21.70;87.60;;;22.15;92.99;100886.69;5046385;28;20473;-77
2022/06/18 06:30:52;;;;;;;3.83;2.70;;;21.70;87.50;;;22.22;93.13;100887.16;5030801;28;20049;-74
2022/06/18 06:33:20;;;;;;;4.43;2.90;;;21.80;87.50;;;22.28;93.43;100891.25;5045760;28;20049;-75
2022/06/18 06:35:49;;;;;;;5.90;2.55;;;21.80;87.60;;;22.38;91.93;100885.19;5046739;28;20056;-75
2022/06/18 06:38:16;;;;;;;6.43;3.05;;;21.90;87.10;;;22.45;93.82;100890.16;5030506;28;20043;-75
2022/06/18 06:40:44;;;;;;;4.95;3.00;;;22.00;87.60;;;22.50;93.84;100890.75;5045407;28;20049;-77
2022/06/18 06:43:14;;;;;;;3.13;2.58;;;22.10;87.50;;;22.61;89.75;100890.03;5029639;28;20046;-77
2022/06/18 06:45:41;;;;;;;3.92;2.58;;;22.20;86.70;;;22.62;90.81;100887.25;5029511;28;20053;-77
2022/06/18 06:48:09;;;;;;;3.13;2.80;;;22.20;86.40;;;22.72;91.14;100884.81;5029180;28;20828;-77
2022/06/18 06:50:36;;;;;;;3.70;2.72;;;22.30;86.60;;;22.83;90.11;100884.06;5027756;28;20057;-77
2022/06/18 06:53:03;;;;;;;3.10;2.72;;;22.30;86.50;;;22.92;89.36;100882.59;5045120;28;20045;-77
2022/06/18 06:58:21;;;;;;;4.72;3.10;;;22.50;86.20;;;23.06;87.80;100881.66;5044712;28;20064;-77
2022/06/18 07:00:54;;;;;;;3.42;2.58;;;22.70;85.70;;;23.15;85.16;100880.16;5023996;28;20037;-76
2022/06/18 07:03:29;;;;;;;4.07;2.72;;;22.70;85.00;;;23.29;84.28;100877.41;5011290;28;20141;-76
2022/06/18 07:05:58;;;;;;;4.07;2.67;;;22.80;85.10;;;23.36;83.34;100878.69;5014163;28;20123;-77
2022/06/18 07:08:25;;;;;;;3.80;2.53;;;22.80;85.00;;;23.44;83.74;100875.47;5009074;28;20057;-77
2022/06/18 07:10:52;;;;;;;5.25;2.70;;;22.90;85.00;;;23.53;85.34;100871.25;4993474;28;20046;-76
2022/06/18 07:13:27;;;;;;;6.28;2.63;;;22.40;85.00;;;23.65;82.43;100866.88;5028305;28;20806;-75
2022/06/18 07:15:57;;;;;;;4.63;2.72;;;23.10;84.80;;;23.78;76.79;100880.25;5008720;28;20080;-76
2022/06/18 07:18:31;;;;;;;3.10;2.63;;;23.20;83.40;;;23.85;73.58;100870.78;5024094;28;20454;-76
2022/06/18 07:21:01;;;;;;;5.93;2.40;;;23.30;82.50;;;23.98;70.33;100872.56;5025297;28;20047;-77
2022/06/18 07:23:48;;;;;;;2.60;2.40;;;23.50;81.60;;;24.07;69.94;100870.09;5041850;28;20033;-76
2022/06/18 07:26:19;;;;;;;4.65;3.10;;;23.60;81.70;;;24.12;67.74;100863.53;5028797;28;20410;-76
2022/06/18 07:28:47;;;;;;;3.97;2.50;;;23.60;80.50;;;24.23;68.43;100868.97;5031360;28;20487;-75
2022/06/18 07:31:33;;;;;;;3.72;2.50;;;23.70;80.70;;;24.38;65.46;100866.13;5019477;28;20045;-74
2022/06/18 07:34:03;;;;;;;5.63;2.55;;;23.80;80.30;;;24.45;65.83;100867.38;5027434;28;20099;-76
2022/06/18 07:36:32;;;;;;;6.15;2.95;;;23.90;80.00;;;24.54;64.78;100873.91;5010626;28;20050;-74
2022/06/18 07:39:01;;;;;;;4.88;2.63;;;24.00;79.70;;;24.64;62.15;100866.84;5026371;28;20051;-72
2022/06/18 07:41:43;;;;;;;2.40;2.20;;;24.00;79.00;;;24.70;59.92;100870.91;5026758;28;20048;-72
2022/06/18 07:44:12;;;;;;;2.92;2.05;;;24.10;78.10;;;24.76;59.41;100863.25;5027342;28;20056;-74
2022/06/18 07:46:39;;;;;;;4.50;2.38;;;24.20;77.70;;;24.79;57.17;100859.47;5028371;28;20445;-75
2022/06/18 07:49:06;;;;;;;3.75;2.03;;;24.30;76.70;;;24.88;57.33;100860.59;5042951;28;20053;-73
2022/06/18 07:51:34;;;;;;;3.25;2.38;;;24.40;76.60;;;24.98;56.50;100849.97;5025730;28;20080;-73
2022/06/18 07:54:01;;;;;;;4.80;2.60;;;24.40;76.40;;;25.03;56.47;100847.78;5026315;28;20048;-72
2022/06/18 07:56:28;;;;;;;3.85;2.45;;;24.40;76.40;;;25.11;55.46;100845.34;5026507;28;20095;-72
2022/06/18 07:58:55;;;;;;;2.47;2.13;;;24.50;75.80;;;25.28;55.55;100840.47;5026903;28;20041;-73
2022/06/18 08:01:22;;;;;;;4.78;2.55;;;24.60;75.80;;;25.34;54.58;100838.16;5027034;28;20037;-73
2022/06/18 08:03:49;;;;;;;3.30;2.45;;;24.80;75.40;;;25.43;54.64;100841.06;5010062;28;20047;-73
2022/06/18 08:06:17;;;;;;;4.10;2.42;;;24.70;75.20;;;25.51;52.08;100833.28;5025956;28;20049;-73
2022/06/18 08:08:44;;;;;;;2.63;2.13;;;24.90;74.20;;;25.66;52.23;100827.63;5009798;28;20072;-71
2022/06/18 08:11:18;;;;;;;2.95;2.40;;;25.00;74.10;;;25.77;53.83;100828.47;5025431;28;20045;-72
2022/06/18 08:13:46;;;;;;;3.88;2.53;;;25.10;74.60;;;25.85;51.00;100825.16;5025762;28;20056;-72
2022/06/18 08:16:16;;;;;;;3.00;2.50;;;25.20;73.30;;;26.04;48.64;100826.31;5028045;28;20042;-73
2022/06/18 08:18:43;;;;;;;3.25;2.00;;;25.40;72.10;;;26.06;48.95;100827.06;5026061;28;20453;-73
2022/06/18 08:21:17;;;;;;;4.82;2.28;;;25.50;72.20;;;26.19;46.90;100826.94;5025454;28;20053;-73
2022/06/18 08:23:45;;;;;;;3.17;2.50;;;25.60;70.90;;;26.26;47.73;100824.59;5027422;28;20124;-73
2022/06/18 08:26:12;;;;;;;3.15;2.22;;;25.60;71.10;;;26.41;47.23;100815.22;5035524;28;20125;-73
2022/06/18 08:28:40;;;;;;;3.47;2.42;;;25.80;71.10;;;26.50;47.16;100824.38;5026270;28;20145;-74
2022/06/18 08:31:08;;;;;;;3.85;2.38;;;25.80;70.70;;;26.59;46.73;100820.03;5022801;28;20129;-72
2022/06/18 08:33:37;;;;;;;3.45;2.25;;;25.90;70.30;;;26.72;44.68;100809.03;5021305;28;20038;-73
2022/06/18 08:36:11;;;;;;;2.50;1.88;;;26.10;69.40;;;26.83;43.03;100819.78;5026480;28;20452;-72
2022/06/18 08:38:41;;;;;;;2.70;1.98;;;26.20;68.00;;;26.93;43.75;100809.06;5026118;28;20141;-73
2022/06/18 08:41:40;;;;;;;4.85;2.28;;;26.30;68.30;;;27.00;44.46;100807.53;5025394;28;20048;-73
2022/06/18 08:44:39;;;;;;;4.13;2.03;;;26.30;68.00;;;27.09;42.93;100808.59;5025662;28;20127;-73
2022/06/18 08:47:38;;;;;;;7.73;1.93;;;26.50;67.30;;;27.22;42.23;100807.50;5011224;28;20055;-72
2022/06/18 08:50:42;;;;;;;2.45;2.22;;;26.50;66.50;;;27.28;40.22;100793.47;5024944;28;20294;-73
2022/06/18 08:53:37;;;;;;;2.83;2.13;;;26.60;64.90;;;27.46;39.87;100793.66;5004967;28;20144;-74
2022/06/18 08:56:46;;;;;;;2.53;2.00;;;26.80;64.20;;;27.63;39.64;100789.47;4990718;28;20038;-73
2022/06/18 08:59:46;;;;;;;3.38;2.70;;;26.90;64.40;;;27.80;40.50;100793.38;4945810;29;20819;-73
2022/06/18 09:02:51;;;;;;;2.40;2.20;;;27.10;64.90;;;27.82;39.80;100794.06;5007540;28;20049;-74
2022/06/18 09:06:06;;;;;;;3.88;2.05;;;27.10;64.30;;;27.95;40.25;100788.38;5014362;28;20049;-74
2022/06/18 09:08:48;;;;;;;3.40;2.45;;;27.20;64.10;;;28.19;39.20;100780.91;5026938;28;20404;-74
2022/06/18 09:11:48;;;;;;;2.20;1.83;;;27.40;63.40;;;28.14;39.18;100779.44;5026300;28;20053;-73
2022/06/18 09:14:42;;;;;;;;;;;27.50;63.20;;;28.25;39.14;100769.50;5026169;28;20116;-73
2022/06/18 09:17:21;;;;;;;2.67;2.40;;;27.50;62.80;;;28.47;40.03;100770.19;5031443;28;20022;-72
2022/06/18 09:20:31;;;;;;;4.18;2.20;;;27.60;63.30;;;28.60;38.34;100781.59;5025968;28;20073;-73
2022/06/18 09:23:33;;;;;;;3.15;1.92;;;27.90;62.10;;;28.66;37.31;100764.75;5003849;28;20058;-74
2022/06/18 09:26:04;;;;;;;3.42;1.90;;;28.00;60.90;;;28.76;37.96;100761.19;5005871;28;20054;-75
2022/06/18 09:28:41;;;;;;;5.93;2.03;;;28.10;61.40;;;28.89;37.79;100759.03;5006267;28;20125;-75
2022/06/18 09:31:29;;;;;;;3.60;2.00;;;28.20;61.10;;;28.96;37.82;100760.13;4989998;28;20089;-75
2022/06/18 09:34:17;;;;;;;5.72;2.08;;;28.20;61.10;;;29.02;38.21;100755.97;5005828;28;20052;-73
2022/06/18 09:36:49;;;;;;;3.70;2.00;;;28.30;61.80;;;29.07;36.77;100750.97;4991653;28;20053;-76
2022/06/18 09:39:48;;;;;;;4.13;2.17;;;28.40;59.90;;;29.24;36.99;100745.75;5009158;28;20050;-75
2022/06/18 09:42:45;;;;;;;4.15;2.50;;;28.50;60.20;;;29.35;36.42;100752.81;5010391;28;20054;-75
2022/06/18 09:45:19;;;;;;;2.70;2.30;;;28.60;59.80;;;29.42;36.62;100743.97;5010356;28;20061;-74
2022/06/18 09:47:49;;;;;;;3.42;2.13;;;28.70;59.70;;;29.54;36.72;100749.19;5011187;28;20399;-74
2022/06/18 09:50:37;;;;;;;4.05;2.10;;;28.80;59.80;;;29.75;36.39;100748.06;5011156;28;20092;-75
2022/06/18 09:53:25;;;;;;;2.10;1.90;;;28.90;60.00;;;29.83;36.80;100749.00;5015420;28;20061;-75
2022/06/18 09:56:13;;;;;;;4.47;2.42;;;29.00;59.80;;;30.03;36.15;100748.00;5032286;28;20570;-75
2022/06/18 09:58:57;;;;;;;3.67;2.20;;;29.10;59.50;;;30.09;35.18;100744.69;5016885;28;20100;-74
2022/06/18 10:01:47;;;;;;;3.10;2.10;;;29.30;58.40;;;30.23;35.07;100740.56;5031392;28;20124;-75
2022/06/18 10:07:18;;;;;;;2.80;1.80;;;29.60;57.20;;;30.41;33.55;100725.09;5031885;28;20037;-75
2022/06/18 10:10:09;;;;;;;3.10;2.07;;;29.70;56.60;;;30.41;33.63;100724.25;5030737;28;20042;-75
2022/06/18 10:12:43;;;;;;;3.65;2.20;;;29.70;56.50;;;30.45;33.49;100717.47;5011442;28;20065;-76
2022/06/18 10:15:13;;;;;;;2.90;2.05;;;29.80;56.20;;;30.55;33.74;100720.09;5011039;28;20038;-75
2022/06/18 10:18:02;;;;;;;1.73;1.48;;;29.80;56.60;;;30.74;32.58;100726.34;5009806;28;20052;-76
2022/06/18 10:20:41;;;;;;;6.80;1.92;;;29.90;55.60;;;30.80;33.16;100707.53;5017663;28;20052;-75
2022/06/18 10:23:59;;;;;;;3.70;1.52;;;30.00;55.80;;;30.92;32.61;100694.53;5030443;28;20045;-76
2022/06/18 10:26:41;;;;;;;2.42;1.83;;;30.10;55.20;;;31.08;32.25;100691.03;5012447;28;20045;-75
2022/06/18 10:29:31;;;;;;;1.77;1.60;;;30.20;54.90;;;31.41;30.31;100695.75;5028823;28;20061;-75
2022/06/18 10:32:26;;;;;;;1.70;1.50;;;30.50;53.40;;;31.40;30.44;100675.03;5019244;28;20064;-75
2022/06/18 10:35:28;;;;;;;5.15;1.70;;;30.70;53.40;;;31.46;28.81;100678.94;5019103;28;20689;-76
2022/06/18 10:38:09;;;;;;;3.28;1.50;;;30.70;51.90;;;31.68;28.53;100672.84;5004177;28;20049;-77
2022/06/18 10:41:42;;;;;;;3.28;1.77;;;30.90;51.30;;;31.62;29.74;100670.81;5030106;28;20059;-76
2022/06/18 10:44:46;;;;;;;1.65;1.50;;;31.00;51.60;;;31.88;27.10;100672.53;5000434;28;20124;-76
2022/06/18 10:47:17;;;;;;;1.23;0.90;;;31.10;49.80;;;32.05;26.19;100669.81;5027424;28;20498;-76
2022/06/18 10:49:46;;;;;;;2.63;1.20;;;31.20;48.80;;;32.08;26.04;100658.59;5021893;28;20057;-77
2022/06/18 10:52:23;;;;;;;3.03;1.43;;;31.30;48.50;;;32.08;26.28;100650.41;5017134;28;20650;-76
2022/06/18 10:55:08;;;;;;;6.75;2.03;;;31.40;48.40;;;32.27;22.77;100651.09;5004029;28;20070;-76
2022/06/18 10:57:35;;;;;;;8.18;2.17;;;31.50;45.70;;;32.36;24.33;100648.22;5027564;28;20112;-76
2022/06/18 11:00:09;;;;;;;4.28;1.55;;;31.60;46.20;;;32.52;25.03;100644.56;5028171;28;20053;-75
2022/06/18 11:02:38;;;;;;;3.95;1.73;;;31.80;46.90;;;32.49;25.26;100644.09;5045141;28;20065;-76
2022/06/18 11:05:29;;;;;;;2.28;1.33;;;31.80;46.90;;;32.82;21.86;100643.97;5011628;28;20081;-76